Time;durP1;ratioP1;P1;durP2;ratioP2;P2;SDS_P1;SDS_P2;PMS_P1;PMS_P2;Temp;Humidity;BMP_temperature;BMP_pressure;BME280_temperature;BME280_humidity;BME280_pressure;Samples;Min_cycle;Max_cycle;Signal;HPM_P1;HPM_P2
2023/04/03 00:01:23;;;;;;;2.97;2.37;;;;;;;4.50;75.06;99475.91;5024805;27;104279;-60
2023/04/03 00:03:52;;;;;;;2.50;2.03;;;;;;;4.67;74.15;99484.00;5025072;27;104589;-59
2023/04/03 00:06:20;;;;;;;2.90;2.37;;;;;;;4.57;75.17;99473.03;5025113;27;103159;-59
2023/04/03 00:08:48;;;;;;;2.33;2.13;;;;;;;4.58;74.54;99481.72;5013347;27;102966;-59
2023/04/03 00:11:17;;;;;;;3.23;2.47;;;;;;;4.46;74.18;99476.94;5009499;27;103124;-59
2023/04/03 00:13:46;;;;;;;2.13;1.93;;;;;;;4.56;74.67;99483.53;5025836;27;103118;-60
2023/04/03 00:16:14;;;;;;;4.43;2.40;;;;;;;4.46;74.30;99484.78;5027537;27;103233;-59
2023/04/03 00:18:45;;;;;;;3.93;2.30;;;;;;;4.42;75.12;99484.03;5006396;27;103935;-60
2023/04/03 00:21:15;;;;;;;4.10;2.50;;;;;;;4.50;74.60;99482.00;5028652;27;104134;-60
2023/04/03 00:23:43;;;;;;;4.30;2.50;;;;;;;4.76;74.11;99482.81;5027787;27;104684;-59
2023/04/03 00:26:11;;;;;;;3.73;2.17;;;;;;;4.73;74.61;99491.66;5008678;27;102992;-59
2023/04/03 00:28:40;;;;;;;2.70;2.43;;;;;;;4.57;74.17;99482.66;5003732;27;103075;-59
2023/04/03 00:31:08;;;;;;;2.40;2.20;;;;;;;4.43;75.06;99479.66;5024525;27;102775;-59
2023/04/03 00:33:37;;;;;;;3.23;2.40;;;;;;;4.44;74.55;99482.22;5025326;27;103233;-60
2023/04/03 00:36:10;;;;;;;2.63;2.30;;;;;;;4.63;74.32;99485.03;5007883;27;103387;-59
2023/04/03 00:38:41;;;;;;;4.10;2.43;;;;;;;4.59;74.54;99475.59;5005186;27;102755;-59
2023/04/03 00:41:09;;;;;;;3.47;2.50;;;;;;;4.29;74.62;99482.75;5018843;27;102821;-59
2023/04/03 00:43:38;;;;;;;2.90;2.33;;;;;;;4.54;74.68;99482.75;5019977;27;103312;-59
2023/04/03 00:46:06;;;;;;;4.57;2.80;;;;;;;4.47;75.19;99481.25;5012111;27;103494;-60
2023/04/03 00:48:38;;;;;;;4.00;2.50;;;;;;;4.49;75.06;99480.28;5011932;27;103197;-59
2023/04/03 00:51:07;;;;;;;3.70;2.47;;;;;;;4.39;74.97;99478.03;5028038;27;102745;-59
2023/04/03 00:53:40;;;;;;;4.27;2.70;;;;;;;4.56;74.90;99473.06;5009350;27;104402;-59
2023/04/03 00:56:13;;;;;;;3.97;2.50;;;;;;;4.51;74.71;99470.63;5015738;27;103236;-59
2023/04/03 00:58:47;;;;;;;2.43;2.23;;;;;;;4.63;75.15;99477.19;5026848;27;102807;-60
2023/04/03 01:01:21;;;;;;;2.50;2.23;;;;;;;4.72;74.45;99474.22;5027466;27;104488;-60
2023/04/03 01:03:50;;;;;;;3.80;2.43;;;;;;;4.63;74.21;99471.97;5029585;27;103250;-59
2023/04/03 01:06:25;;;;;;;3.00;2.60;;;;;;;5.05;73.50;99475.59;5027787;27;103476;-59
2023/04/03 01:08:55;;;;;;;5.13;2.40;;;;;;;4.45;73.66;99477.84;5025759;27;102808;-60
2023/04/03 01:11:25;;;;;;;3.13;2.40;;;;;;;4.88;73.58;99472.78;5029232;27;102934;-59
2023/04/03 01:13:54;;;;;;;2.60;2.10;;;;;;;4.93;73.02;99475.19;5006691;27;104247;-60
2023/04/03 01:16:22;;;;;;;3.23;2.60;;;;;;;4.74;73.58;99468.94;5026482;27;103183;-60
2023/04/03 01:18:50;;;;;;;4.30;2.40;;;;;;;4.92;73.24;99469.09;5024189;27;102768;-59
2023/04/03 01:21:48;;;;;;;2.50;1.97;;;;;;;5.33;72.37;99464.06;5009428;27;103111;-60
2023/04/03 01:24:29;;;;;;;3.67;2.57;;;;;;;5.03;72.59;99469.56;5026846;27;103491;-59
2023/04/03 01:26:59;;;;;;;3.07;2.20;;;;;;;5.25;71.88;99461.72;5007507;27;103416;-60
2023/04/03 01:29:27;;;;;;;3.77;2.73;;;;;;;5.10;72.05;99473.66;5006756;27;102977;-59
2023/04/03 01:31:59;;;;;;;2.97;2.07;;;;;;;5.07;72.71;99467.69;5009527;27;103385;-59
2023/04/03 01:34:29;;;;;;;2.77;2.50;;;;;;;4.78;73.45;99474.00;5027994;27;103407;-60
2023/04/03 01:36:57;;;;;;;3.60;2.47;;;;;;;4.68;74.16;99476.13;5028784;27;103311;-60
2023/04/03 01:39:26;;;;;;;2.77;2.23;;;;;;;4.82;73.22;99480.84;5021558;27;102726;-59
2023/04/03 01:41:54;;;;;;;2.43;2.00;;;;;;;5.04;73.63;99480.88;5010362;27;103672;-59
2023/04/03 01:44:33;;;;;;;2.80;2.57;;;;;;;5.12;72.18;99484.94;5004448;27;104278;-59
2023/04/03 01:47:03;;;;;;;4.70;2.83;;;;;;;4.72;73.68;99487.31;5007022;27;103229;-59
2023/04/03 01:49:31;;;;;;;4.07;2.37;;;;;;;4.82;72.02;99478.22;5002598;27;103278;-59
2023/04/03 01:52:02;;;;;;;2.50;2.20;;;;;;;5.24;71.39;99470.50;5024358;27;104038;-59
2023/04/03 01:54:30;;;;;;;2.70;2.50;;;;;;;5.32;71.16;99478.06;5005116;27;103221;-59
2023/04/03 01:56:58;;;;;;;2.53;2.30;;;;;;;4.94;72.34;99480.38;5008717;27;103317;-59
2023/04/03 01:59:27;;;;;;;3.37;2.50;;;;;;;5.19;71.59;99475.91;5011263;27;102896;-59
2023/04/03 02:01:56;;;;;;;2.93;2.50;;;;;;;4.76;72.80;99486.31;5004168;27;103300;-59
2023/04/03 02:04:26;;;;;;;2.60;2.40;;;;;;;4.88;72.87;99482.38;5029646;27;104252;-59
2023/04/03 02:06:54;;;;;;;3.30;2.43;;;;;;;4.91;72.28;99477.88;5013375;27;103264;-60
2023/04/03 02:09:22;;;;;;;2.83;2.57;;;;;;;4.97;72.30;99480.25;5013011;27;103149;-60
2023/04/03 02:11:53;;;;;;;2.37;2.10;;;;;;;5.25;70.54;99483.53;5007918;27;104282;-59
2023/04/03 02:14:21;;;;;;;3.17;2.40;;;;;;;4.97;71.95;99479.44;5026392;27;103317;-59
2023/04/03 02:16:50;;;;;;;3.07;2.40;;;;;;;5.20;71.38;99485.50;5024437;27;103197;-60
2023/04/03 02:19:18;;;;;;;3.00;2.30;;;;;;;4.59;72.39;99481.69;5030929;27;102853;-59
2023/04/03 02:21:48;;;;;;;3.43;2.17;;;;;;;4.33;72.75;99486.09;5032636;27;102734;-60
2023/04/03 02:24:16;;;;;;;4.20;2.67;;;;;;;4.35;72.73;99481.69;5033219;27;103218;-59
2023/04/03 02:26:44;;;;;;;2.60;2.40;;;;;;;4.09;72.96;99482.59;5029691;27;103497;-59
2023/04/03 02:29:13;;;;;;;3.00;2.70;;;;;;;4.23;73.17;99485.59;5030292;27;102684;-59
2023/04/03 02:31:41;;;;;;;3.20;2.30;;;;;;;4.09;73.40;99486.06;5032268;27;104191;-58
2023/04/03 02:34:10;;;;;;;2.77;2.17;;;;;;;4.10;72.51;99481.66;5017182;27;103950;-59
2023/04/03 02:36:39;;;;;;;3.40;2.80;;;;;;;4.30;72.42;99483.59;5016603;27;103248;-59
2023/04/03 02:39:11;;;;;;;2.57;2.33;;;;;;;4.24;71.98;99481.22;5023290;27;102719;-59
2023/04/03 02:41:39;;;;;;;2.93;2.17;;;;;;;4.07;71.43;99487.84;5021025;27;102844;-59
2023/04/03 02:44:13;;;;;;;2.57;2.30;;;;;;;4.22;71.30;99483.00;5017870;27;103210;-59
2023/04/03 02:46:41;;;;;;;3.03;2.40;;;;;;;3.97;71.55;99489.06;5042654;27;103182;-59
2023/04/03 02:49:09;;;;;;;2.60;2.40;;;;;;;4.09;71.04;99480.84;5026313;27;102637;-59
2023/04/03 02:51:37;;;;;;;2.90;2.47;;;;;;;4.06;70.77;99486.16;5023206;27;104415;-60
2023/04/03 02:54:05;;;;;;;3.47;2.43;;;;;;;4.12;71.87;99492.09;5039751;27;103196;-59
2023/04/03 02:56:37;;;;;;;2.73;2.40;;;;;;;4.35;70.84;99486.94;5019776;27;103478;-59
2023/04/03 02:59:06;;;;;;;2.77;2.33;;;;;;;4.42;69.64;99483.19;5030503;27;103981;-59
2023/04/03 03:01:37;;;;;;;2.53;2.23;;;;;;;4.15;69.84;99489.38;5021434;27;104129;-59
2023/04/03 03:04:05;;;;;;;3.97;2.33;;;;;;;4.22;69.37;99485.63;5012419;27;105290;-60
2023/04/03 03:06:33;;;;;;;2.70;2.50;;;;;;;4.30;70.59;99487.06;5017697;27;103195;-59
2023/04/03 03:09:01;;;;;;;3.37;2.43;;;;;;;4.31;68.73;99480.09;5031496;27;103015;-59
2023/04/03 03:11:30;;;;;;;2.90;2.50;;;;;;;4.37;68.89;99487.72;5025710;27;102903;-59
2023/04/03 03:13:59;;;;;;;2.60;2.20;;;;;;;4.37;69.52;99479.88;5017873;27;103305;-59
2023/04/03 03:16:28;;;;;;;2.23;2.03;;;;;;;4.19;69.33;99483.09;5035295;27;103206;-59
2023/04/03 03:18:57;;;;;;;2.33;2.13;;;;;;;4.39;69.54;99475.44;5022546;27;102791;-59
2023/04/03 03:21:27;;;;;;;2.77;2.37;;;;;;;4.44;70.09;99481.34;5035466;27;102698;-58
2023/04/03 03:23:55;;;;;;;2.27;1.80;;;;;;;4.31;69.30;99474.84;5018061;27;103331;-59
2023/04/03 03:26:24;;;;;;;2.13;1.93;;;;;;;4.39;69.83;99483.28;5014473;27;103469;-59
2023/04/03 03:28:52;;;;;;;4.00;2.27;;;;;;;4.27;69.75;99473.22;5015837;27;102888;-59
2023/04/03 03:31:24;;;;;;;3.00;2.10;;;;;;;4.36;69.83;99475.53;5022847;27;102924;-59
2023/04/03 03:33:53;;;;;;;3.90;2.33;;;;;;;4.66;69.21;99466.59;5016473;27;104404;-59
2023/04/03 03:36:22;;;;;;;2.97;2.10;;;;;;;4.60;68.82;99469.44;5020062;27;103391;-59
2023/04/03 03:38:50;;;;;;;2.73;2.37;;;;;;;4.49;69.34;99472.44;5034195;27;102749;-59
2023/04/03 03:41:21;;;;;;;2.40;2.20;;;;;;;4.86;68.92;99474.56;5014919;27;102729;-60
2023/04/03 03:43:49;;;;;;;3.00;2.40;;;;;;;4.42;69.24;99467.47;5020871;27;103650;-59
2023/04/03 03:46:17;;;;;;;2.72;2.53;;;;;;;4.71;69.72;99479.53;5013870;27;104548;-59
2023/04/03 03:48:47;;;;;;;4.53;2.60;;;;;;;4.99;68.59;99470.59;5012111;27;102699;-59
2023/04/03 03:51:16;;;;;;;2.90;2.60;;;;;;;5.62;66.83;99477.72;5017254;27;102999;-58
2023/04/03 03:53:44;;;;;;;3.72;2.75;;;;;;;5.12;67.66;99482.31;5034080;27;103830;-59
2023/04/03 03:56:17;;;;;;;3.10;2.40;;;;;;;4.60;68.63;99483.38;5029772;27;103343;-59
2023/04/03 03:58:46;;;;;;;3.58;2.72;;;;;;;5.42;66.84;99482.88;5014298;27;102953;-59
2023/04/03 04:01:15;;;;;;;2.75;2.33;;;;;;;5.08;67.33;99478.09;5011869;27;102855;-59
2023/04/03 04:03:48;;;;;;;3.00;2.30;;;;;;;5.31;66.25;99481.59;5027752;27;103465;-59
2023/04/03 04:06:20;;;;;;;2.90;2.40;;;;;;;5.02;65.47;99478.34;4991683;27;103735;-59
2023/04/03 04:08:49;;;;;;;2.78;2.50;;;;;;;5.04;65.42;99487.00;5006949;27;102771;-59
2023/04/03 04:11:17;;;;;;;3.47;2.65;;;;;;;4.74;66.88;99490.75;5019491;27;103202;-60
2023/04/03 04:13:47;;;;;;;3.13;2.58;;;;;;;4.75;66.33;99487.19;5002723;27;103037;-59
2023/04/03 04:16:17;;;;;;;4.20;2.50;;;;;;;4.68;66.19;99496.19;5022857;27;103733;-60
2023/04/03 04:18:50;;;;;;;3.57;2.33;;;;;;;5.30;64.73;99488.63;5009129;27;103136;-59
2023/04/03 04:21:20;;;;;;;4.88;2.42;;;;;;;4.69;66.65;99487.41;4997598;27;102816;-59
2023/04/03 04:23:51;;;;;;;3.05;2.50;;;;;;;4.38;66.88;99492.06;4993796;27;103231;-59
2023/04/03 04:26:21;;;;;;;3.05;2.70;;;;;;;4.46;67.72;99495.25;5010352;27;103197;-59
2023/04/03 04:28:50;;;;;;;2.70;2.50;;;;;;;4.84;66.65;99484.25;5006074;27;103024;-59
2023/04/03 04:31:19;;;;;;;3.25;2.33;;;;;;;4.32;67.47;99487.03;5018815;27;104174;-59
2023/04/03 04:33:50;;;;;;;2.47;2.28;;;;;;;4.48;67.83;99482.97;5008974;27;103527;-59
2023/04/03 04:36:18;;;;;;;2.60;2.40;;;;;;;4.75;67.02;99487.19;5011132;27;103221;-59
2023/04/03 04:38:47;;;;;;;3.30;2.60;;;;;;;5.02;65.25;99482.72;5025219;27;104224;-59
2023/04/03 04:41:20;;;;;;;2.50;2.30;;;;;;;5.41;64.74;99485.56;5027775;27;103920;-59
2023/04/03 04:43:50;;;;;;;3.50;2.50;;;;;;;4.77;64.62;99482.78;5030341;27;104960;-59
2023/04/03 04:46:19;;;;;;;2.50;2.30;;;;;;;4.74;65.68;99487.28;4991366;27;109463;-59
2023/04/03 04:48:54;;;;;;;2.80;2.30;;;;;;;4.70;65.49;99483.91;5006973;27;103515;-59
2023/04/03 04:51:23;;;;;;;2.42;2.22;;;;;;;4.94;63.50;99483.00;5019428;27;104583;-59
2023/04/03 04:53:52;;;;;;;2.50;2.30;;;;;;;4.80;64.33;99489.66;5034885;27;104065;-59
2023/04/03 04:56:25;;;;;;;2.53;2.17;;;;;;;4.56;65.16;99492.25;5011225;27;105824;-59
2023/04/03 04:58:56;;;;;;;2.92;2.30;;;;;;;4.64;65.73;99494.59;5005830;27;102909;-60
2023/04/03 05:01:26;;;;;;;3.07;2.40;;;;;;;4.73;66.15;99496.88;5012226;27;102899;-59
2023/04/03 05:04:03;;;;;;;2.67;2.20;;;;;;;4.54;66.67;99495.84;5014169;27;104318;-59
2023/04/03 05:06:36;;;;;;;3.70;2.55;;;;;;;4.53;67.10;99491.50;5029013;27;103279;-58
2023/04/03 05:09:09;;;;;;;3.00;2.40;;;;;;;4.78;65.64;99497.56;5032924;27;102855;-58
2023/04/03 05:11:39;;;;;;;3.63;2.45;;;;;;;4.47;66.92;99507.41;5012973;27;103382;-59
2023/04/03 05:14:09;;;;;;;4.35;2.58;;;;;;;4.55;65.80;99513.22;4990375;27;103579;-58
2023/04/03 05:16:37;;;;;;;2.72;2.47;;;;;;;4.35;66.47;99513.09;5003073;27;103709;-58
2023/04/03 05:19:09;;;;;;;3.17;2.53;;;;;;;4.71;66.12;99509.19;5004896;27;103158;-58
2023/04/03 05:21:40;;;;;;;2.73;2.47;;;;;;;4.52;67.40;99516.81;5026600;27;103557;-57
2023/04/03 05:24:14;;;;;;;3.63;2.40;;;;;;;4.58;66.29;99513.97;5013398;27;103334;-58
2023/04/03 05:26:44;;;;;;;2.90;2.20;;;;;;;4.68;66.51;99517.13;5006646;27;103082;-58
2023/04/03 05:29:14;;;;;;;3.20;2.33;;;;;;;4.88;65.38;99512.03;5010487;27;102751;-58
2023/04/03 05:31:43;;;;;;;2.53;2.30;;;;;;;4.27;66.51;99526.41;4994820;27;103361;-59
2023/04/03 05:34:14;;;;;;;3.65;2.45;;;;;;;4.53;67.18;99520.28;5009036;27;103029;-58
2023/04/03 05:36:44;;;;;;;2.33;2.13;;;;;;;4.34;66.20;99527.94;5010733;27;103252;-58
2023/04/03 05:39:19;;;;;;;2.70;2.20;;;;;;;4.40;66.95;99519.00;5014737;27;103384;-58
2023/04/03 05:42:11;;;;;;;2.83;2.50;;;;;;;4.73;66.80;99525.69;5011485;27;104428;-58
2023/04/03 05:44:40;;;;;;;4.30;2.50;;;;;;;4.72;66.77;99525.72;5004827;27;103259;-58
2023/04/03 05:47:08;;;;;;;3.42;2.33;;;;;;;4.59;66.61;99536.63;5009430;27;103257;-58
2023/04/03 05:49:40;;;;;;;2.77;2.30;;;;;;;4.42;66.36;99535.50;5028617;27;102616;-58
2023/04/03 05:52:19;;;;;;;2.33;2.13;;;;;;;4.49;66.89;99531.78;5026163;27;102870;-58
2023/04/03 05:54:48;;;;;;;2.50;2.30;;;;;;;5.05;66.50;99535.81;5019742;27;104108;-58
2023/04/03 05:57:23;;;;;;;4.00;2.07;;;;;;;4.50;66.92;99538.72;4999915;27;104944;-58
2023/04/03 05:59:54;;;;;;;2.70;2.17;;;;;;;4.57;67.07;99537.59;5006231;27;102780;-58
2023/04/03 06:02:26;;;;;;;3.38;2.47;;;;;;;4.22;68.43;99532.72;5021537;27;103189;-58
2023/04/03 06:05:03;;;;;;;2.67;2.20;;;;;;;4.21;68.65;99539.69;5001458;27;104117;-59
2023/04/03 06:07:49;;;;;;;2.70;2.50;;;;;;;4.49;67.96;99542.25;5015171;27;102998;-59
2023/04/03 06:10:19;;;;;;;2.67;2.33;;;;;;;4.71;67.07;99543.22;5026387;27;103563;-58
2023/04/03 06:12:50;;;;;;;3.53;2.40;;;;;;;4.35;66.85;99539.25;5033028;27;103871;-58
2023/04/03 06:15:26;;;;;;;3.03;2.30;;;;;;;4.28;67.83;99554.28;5022410;27;103258;-59
2023/04/03 06:18:16;;;;;;;2.97;2.50;;;;;;;4.96;66.78;99548.41;4989002;27;103164;-58
2023/04/03 06:20:47;;;;;;;3.22;2.38;;;;;;;5.09;65.33;99560.16;5014650;27;102932;-58
2023/04/03 06:23:15;;;;;;;3.17;2.43;;;;;;;5.42;63.91;99552.81;5006068;27;102879;-58
2023/04/03 06:25:43;;;;;;;3.17;2.30;;;;;;;4.73;65.34;99566.69;5020886;27;103285;-58
2023/04/03 06:28:11;;;;;;;3.20;2.22;;;;;;;5.17;64.88;99564.19;5004796;27;103267;-58
2023/04/03 06:30:39;;;;;;;2.73;2.23;;;;;;;5.56;64.08;99567.06;5023459;27;102709;-58
2023/04/03 06:33:08;;;;;;;3.00;2.38;;;;;;;5.44;64.32;99564.09;4998733;27;102863;-58
2023/04/03 06:35:38;;;;;;;4.25;2.55;;;;;;;4.75;65.62;99570.97;5020813;27;103083;-57
2023/04/03 06:38:09;;;;;;;3.55;2.50;;;;;;;4.57;66.26;99569.00;5019775;27;103091;-59
2023/04/03 06:40:38;;;;;;;3.30;2.35;;;;;;;4.84;66.41;99572.41;5019654;27;102702;-59
2023/04/03 06:43:08;;;;;;;4.07;2.50;;;;;;;5.21;64.95;99573.66;5027282;27;103021;-58
2023/04/03 06:45:36;;;;;;;2.93;2.57;;;;;;;4.82;66.13;99564.63;5018661;27;103197;-58
2023/04/03 06:48:05;;;;;;;2.95;2.50;;;;;;;4.96;66.39;99570.22;5009775;27;103247;-58
2023/04/03 06:50:33;;;;;;;3.33;2.63;;;;;;;4.96;66.63;99572.84;5023969;27;102685;-59
2023/04/03 06:53:03;;;;;;;2.97;2.60;;;;;;;4.84;66.79;99570.66;5025891;27;103955;-59
2023/04/03 06:55:33;;;;;;;3.67;2.60;;;;;;;5.02;66.17;99570.00;5019117;27;103267;-58
2023/04/03 06:58:03;;;;;;;3.60;2.50;;;;;;;5.19;66.41;99572.03;5011273;27;103002;-57
2023/04/03 07:00:36;;;;;;;3.58;2.72;;;;;;;4.73;66.86;99582.41;5032576;27;102642;-58
2023/04/03 07:03:09;;;;;;;2.67;2.43;;;;;;;4.93;66.24;99579.94;5017959;27;102702;-58
2023/04/03 07:05:37;;;;;;;3.80;2.70;;;;;;;4.96;67.20;99575.47;5029795;27;103468;-58
2023/04/03 07:08:07;;;;;;;3.10;2.80;;;;;;;4.63;67.24;99581.91;5025810;27;103214;-58
2023/04/03 07:10:38;;;;;;;3.75;2.55;;;;;;;5.22;66.78;99588.44;5025797;27;102665;-58
2023/04/03 07:13:10;;;;;;;4.65;2.88;;;;;;;5.16;66.64;99588.72;5008222;27;102756;-58
2023/04/03 07:15:45;;;;;;;3.63;2.63;;;;;;;5.26;66.18;99584.81;5027890;27;103231;-58
2023/04/03 07:18:27;;;;;;;3.97;2.67;;;;;;;5.50;65.56;99588.28;5008321;27;103968;-58
2023/04/03 07:20:56;;;;;;;3.00;2.47;;;;;;;6.01;64.10;99590.69;5024842;27;103007;-58
2023/04/03 07:23:24;;;;;;;3.83;2.40;;;;;;;5.63;65.51;99594.78;5027747;27;102980;-58
2023/04/03 07:25:55;;;;;;;2.95;2.40;;;;;;;5.28;66.04;99588.22;5019820;27;103492;-58
2023/04/03 07:28:23;;;;;;;5.27;2.50;;;;;;;5.18;65.82;99588.63;4991908;27;103722;-58
2023/04/03 07:30:54;;;;;;;3.85;2.83;;;;;;;5.28;66.38;99597.03;5025306;27;102703;-57
2023/04/03 07:33:24;;;;;;;3.73;2.73;;;;;;;5.66;65.00;99594.66;5009885;27;104144;-57
2023/04/03 07:35:54;;;;;;;3.15;2.53;;;;;;;5.24;64.66;99596.28;5028227;27;103236;-58
2023/04/03 07:38:24;;;;;;;3.00;2.25;;;;;;;5.54;65.27;99594.25;5033677;27;103240;-58
2023/04/03 07:40:54;;;;;;;3.42;2.70;;;;;;;5.97;63.65;99596.13;5030068;27;102960;-59
2023/04/03 07:43:24;;;;;;;4.13;2.47;;;;;;;5.84;63.66;99599.19;5033049;27;103631;-58
2023/04/03 07:45:53;;;;;;;3.28;2.70;;;;;;;6.49;62.98;99587.81;5019248;27;102743;-58
2023/04/03 07:48:23;;;;;;;3.40;2.70;;;;;;;5.92;63.52;99596.31;5030683;27;103193;-58
2023/04/03 07:50:53;;;;;;;3.70;2.70;;;;;;;6.22;61.74;99604.72;5037664;27;102697;-58
2023/04/03 07:53:21;;;;;;;4.55;2.40;;;;;;;7.31;59.67;99594.75;5033720;27;103508;-59
2023/04/03 07:55:59;;;;;;;4.38;2.70;;;;;;;7.70;59.81;99592.06;5033656;27;103310;-58
2023/04/03 07:58:27;;;;;;;3.65;2.50;;;;;;;7.08;61.09;99600.16;5031591;27;103159;-58
2023/04/03 08:00:58;;;;;;;3.57;2.40;;;;;;;5.58;63.57;99608.97;5029994;27;102939;-59
2023/04/03 08:03:27;;;;;;;3.30;2.33;;;;;;;5.99;64.73;99608.25;5033118;27;102636;-58
2023/04/03 08:05:56;;;;;;;3.20;2.40;;;;;;;6.37;63.29;99610.19;5017324;27;103287;-58
2023/04/03 08:08:24;;;;;;;3.40;2.50;;;;;;;6.94;61.62;99606.03;5037439;27;103330;-58
2023/04/03 08:10:54;;;;;;;4.28;2.85;;;;;;;7.47;60.58;99593.13;5037803;27;102712;-58
2023/04/03 08:13:26;;;;;;;2.85;2.55;;;;;;;6.32;62.67;99612.16;5038187;27;103767;-58
2023/04/03 08:15:54;;;;;;;3.03;2.50;;;;;;;8.06;61.16;99598.22;5034734;27;103384;-58
2023/04/03 08:18:24;;;;;;;4.27;2.40;;;;;;;7.18;59.18;99604.97;5036465;27;103175;-59
2023/04/03 08:20:52;;;;;;;3.25;2.30;;;;;;;8.67;57.22;99604.84;5036620;27;102838;-58
2023/04/03 08:23:20;;;;;;;4.38;2.60;;;;;;;8.28;57.41;99606.00;5024331;27;104469;-59
2023/04/03 08:25:48;;;;;;;2.87;2.40;;;;;;;6.50;62.70;99618.44;5014350;27;103237;-59
2023/04/03 08:28:16;;;;;;;4.37;2.90;;;;;;;7.15;62.10;99615.63;5023076;27;103246;-59
2023/04/03 08:30:45;;;;;;;3.97;2.57;;;;;;;7.36;62.46;99603.28;5034899;27;102765;-59
2023/04/03 08:33:15;;;;;;;4.18;2.60;;;;;;;6.92;62.83;99615.75;5019020;27;102760;-58
2023/04/03 08:35:43;;;;;;;3.30;2.40;;;;;;;6.18;62.34;99611.84;5034751;27;103644;-59
2023/04/03 08:38:11;;;;;;;3.95;2.33;;;;;;;6.25;63.44;99625.59;5039607;27;103260;-59
2023/04/03 08:40:41;;;;;;;3.22;2.58;;;;;;;6.15;64.37;99625.09;5034739;27;102979;-59
2023/04/03 08:43:31;;;;;;;4.00;2.53;;;;;;;6.04;64.63;99613.31;5015372;27;103228;-59
2023/04/03 08:46:05;;;;;;;3.38;2.63;;;;;;;5.81;65.27;99616.84;5021686;27;103518;-59
2023/04/03 08:48:37;;;;;;;3.50;2.22;;;;;;;6.07;64.79;99621.94;5024571;27;103350;-58
2023/04/03 08:51:14;;;;;;;4.33;2.77;;;;;;;6.17;64.29;99620.66;5006869;27;102930;-58
2023/04/03 08:53:50;;;;;;;4.90;2.37;;;;;;;7.13;62.47;99619.25;5014871;27;102969;-58
2023/04/03 08:56:20;;;;;;;4.18;2.55;;;;;;;6.76;62.02;99619.97;5023285;27;103221;-58
2023/04/03 08:58:54;;;;;;;4.03;2.50;;;;;;;6.77;60.36;99619.03;5007133;27;103143;-59
2023/04/03 09:01:27;;;;;;;2.75;2.42;;;;;;;7.04;61.44;99612.59;5028681;27;102659;-58
2023/04/03 09:03:55;;;;;;;2.87;1.97;;;;;;;7.71;58.99;99609.56;5016846;27;103988;-58
2023/04/03 09:06:28;;;;;;;3.57;2.20;;;;;;;7.18;60.98;99619.88;5032303;27;103205;-57
2023/04/03 09:09:08;;;;;;;2.47;1.90;;;;;;;7.50;61.24;99611.41;5006706;27;103516;-58
2023/04/03 09:11:47;;;;;;;3.70;1.70;;;;;;;7.51;57.44;99618.38;5033362;27;102932;-58
2023/04/03 09:14:22;;;;;;;3.20;2.17;;;;;;;7.44;57.52;99612.53;5031421;27;102828;-58
2023/04/03 09:16:57;;;;;;;4.10;2.20;;;;;;;7.18;58.70;99617.25;5023440;27;104046;-59
2023/04/03 09:19:37;;;;;;;2.97;1.90;;;;;;;7.18;57.31;99618.13;5008021;27;103350;-58
2023/04/03 09:22:17;;;;;;;3.53;2.00;;;;;;;6.69;58.62;99627.25;5021873;27;103008;-58
2023/04/03 09:24:47;;;;;;;3.20;1.97;;;;;;;6.95;59.85;99618.25;5026632;27;104386;-58
2023/04/03 09:27:16;;;;;;;3.80;2.00;;;;;;;7.58;56.24;99610.13;5021150;27;103456;-58
2023/04/03 09:29:45;;;;;;;1.90;1.70;;;;;;;7.55;56.90;99607.63;5031729;27;103342;-58
2023/04/03 09:32:26;;;;;;;2.10;1.83;;;;;;;7.99;56.98;99610.84;5023182;27;102668;-58
2023/04/03 09:34:56;;;;;;;2.87;1.87;;;;;;;8.06;58.02;99606.97;5031213;27;102777;-58
2023/04/03 09:37:38;;;;;;;4.57;2.07;;;;;;;7.00;60.50;99618.91;5026543;27;103227;-58
2023/04/03 09:40:30;;;;;;;3.37;1.93;;;;;;;7.28;58.86;99616.78;5020306;27;103413;-58
2023/04/03 09:43:00;;;;;;;5.00;2.23;;;;;;;7.22;59.81;99606.53;5002181;27;103114;-58
2023/04/03 09:45:31;;;;;;;3.70;2.00;;;;;;;6.81;60.75;99607.50;5026171;27;102889;-58
2023/04/03 09:48:09;;;;;;;4.57;1.83;;;;;;;6.56;59.14;99609.44;5012078;27;104486;-58
2023/04/03 09:51:03;;;;;;;4.47;2.20;;;;;;;7.57;59.96;99603.19;5010272;27;103286;-58
2023/04/03 09:53:50;;;;;;;2.63;1.60;;;;;;;6.76;58.59;99612.94;5012316;27;103145;-58
2023/04/03 09:56:25;;;;;;;6.07;1.77;;;;;;;6.89;58.61;99621.16;5029199;27;103914;-59
2023/04/03 09:59:16;;;;;;;4.57;1.87;;;;;;;7.50;57.06;99617.50;5010170;27;103216;-58
2023/04/03 10:02:03;;;;;;;2.87;1.70;;;;;;;7.69;55.14;99611.44;5006629;27;104937;-58
2023/04/03 10:04:41;;;;;;;3.87;1.70;;;;;;;7.64;56.65;99613.38;5026826;27;102699;-58
2023/04/03 10:07:29;;;;;;;3.37;2.20;;;;;;;7.41;58.36;99607.41;4992770;27;102888;-58
2023/04/03 10:10:01;;;;;;;2.90;1.67;;;;;;;6.80;58.84;99608.41;5024708;27;104149;-58
2023/04/03 10:12:34;;;;;;;3.33;1.93;;;;;;;6.52;59.38;99610.47;5026607;27;103170;-58
2023/04/03 10:15:13;;;;;;;4.30;2.10;;;;;;;6.93;59.15;99604.34;5024520;27;102739;-58
2023/04/03 10:17:57;;;;;;;3.77;1.90;;;;;;;7.63;57.15;99598.56;5004505;27;104032;-58
2023/04/03 10:20:50;;;;;;;1.73;1.50;;;;;;;6.76;58.12;99609.47;5006537;27;103105;-58
2023/04/03 10:23:56;;;;;;;3.30;1.90;;;;;;;7.06;57.33;99602.88;5010554;27;103060;-58
2023/04/03 10:26:33;;;;;;;3.30;1.70;;;;;;;7.02;56.85;99598.66;5022184;27;102706;-58
2023/04/03 10:29:19;;;;;;;3.57;2.07;;;;;;;6.71;57.88;99604.38;5009337;27;102751;-58
2023/04/03 10:32:01;;;;;;;1.60;1.50;;;;;;;6.71;57.76;99600.94;5008482;27;104048;-58
2023/04/03 10:34:59;;;;;;;3.57;1.70;;;;;;;6.98;59.20;99597.09;5008763;27;102919;-57
2023/04/03 10:37:47;;;;;;;2.83;1.90;;;;;;;6.93;57.48;99593.84;5023241;27;102998;-57
2023/04/03 10:40:25;;;;;;;3.17;2.03;;;;;;;6.72;58.12;99605.25;5026167;27;102796;-58
2023/04/03 10:43:03;;;;;;;2.13;1.50;;;;;;;6.73;55.29;99596.47;5016335;27;103231;-58
2023/04/03 10:45:49;;;;;;;2.00;1.77;;;;;;;6.67;56.54;99597.56;5025023;27;103159;-58
2023/04/03 10:49:09;;;;;;;3.10;1.77;;;;;;;6.30;56.19;99602.63;5028842;27;102749;-58
2023/04/03 10:52:04;;;;;;;1.60;1.30;;;;;;;6.43;55.95;99604.69;5012368;27;103131;-58
2023/04/03 10:54:41;;;;;;;2.23;1.80;;;;;;;6.64;56.23;99600.31;5021951;27;103030;-58
2023/04/03 10:57:12;;;;;;;2.27;1.40;;;;;;;6.47;56.48;99599.31;5024484;27;103370;-58
2023/04/03 10:59:48;;;;;;;3.63;1.63;;;;;;;7.46;55.23;99578.28;5013789;27;103222;-57
2023/04/03 11:02:24;;;;;;;4.63;1.30;;;;;;;7.07;52.99;99591.47;5012910;27;103011;-58
2023/04/03 11:05:03;;;;;;;1.90;1.30;;;;;;;7.22;53.11;99585.50;5023528;27;103299;-58
2023/04/03 11:07:44;;;;;;;2.13;1.37;;;;;;;7.05;54.32;99589.78;5014283;27;103241;-58
2023/04/03 11:10:37;;;;;;;3.33;1.40;;;;;;;7.34;54.48;99584.97;5014600;27;103482;-58
2023/04/03 11:13:17;;;;;;;2.47;1.40;;;;;;;7.70;51.41;99576.28;5010800;27;102866;-59
2023/04/03 11:15:57;;;;;;;1.97;1.57;;;;;;;7.75;50.54;99583.03;5007930;27;103038;-57
2023/04/03 11:18:51;;;;;;;1.47;1.33;;;;;;;7.29;50.84;99589.56;4978283;27;103000;-58
2023/04/03 11:21:24;;;;;;;2.27;1.23;;;;;;;6.78;52.37;99587.47;5025119;27;103736;-57
2023/04/03 11:23:54;;;;;;;1.87;1.50;;;;;;;7.22;52.89;99590.75;5023423;27;102684;-57
2023/04/03 11:26:30;;;;;;;3.87;1.50;;;;;;;7.04;53.01;99590.72;5030436;27;103150;-58
2023/04/03 11:29:04;;;;;;;2.73;1.53;;;;;;;6.50;54.00;99588.69;5015473;27;103198;-57
2023/04/03 11:31:50;;;;;;;4.80;1.30;;;;;;;6.94;52.20;99582.38;4998933;27;102751;-57
2023/04/03 11:34:40;;;;;;;2.23;1.20;;;;;;;6.99;52.72;99588.28;5008124;27;102729;-57
2023/04/03 11:37:23;;;;;;;4.60;1.30;;;;;;;6.81;52.29;99589.09;5009686;27;102984;-57
2023/04/03 11:39:57;;;;;;;3.20;1.50;;;;;;;6.70;53.08;99584.31;5024024;27;103377;-58
2023/04/03 11:42:35;;;;;;;1.93;1.30;;;;;;;6.53;54.31;99585.94;5001380;27;102947;-58
2023/04/03 11:45:31;;;;;;;4.27;1.80;;;;;;;7.08;53.39;99581.78;5029086;27;103506;-58
2023/04/03 11:48:02;;;;;;;1.93;1.67;;;;;;;7.15;54.31;99580.59;5019771;27;102943;-58
2023/04/03 11:50:51;;;;;;;2.90;1.43;;;;;;;6.87;53.39;99570.44;5028426;27;103204;-58
2023/04/03 11:53:36;;;;;;;1.90;1.47;;;;;;;6.45;52.64;99574.91;5006865;27;102742;-58
2023/04/03 11:56:21;;;;;;;2.13;1.60;;;;;;;7.08;52.61;99576.53;5007379;27;104247;-58
2023/04/03 11:59:20;;;;;;;2.37;1.50;;;;;;;7.34;52.71;99568.31;5017839;27;104020;-58
2023/04/03 12:01:52;;;;;;;3.47;1.73;;;;;;;7.44;51.04;99562.56;5011705;27;103349;-58